Time;durP1;ratioP1;P1;durP2;ratioP2;P2;SDS_P1;SDS_P2;PMS_P1;PMS_P2;Temp;Humidity;BMP_temperature;BMP_pressure;BME280_temperature;BME280_humidity;BME280_pressure;Samples;Min_cycle;Max_cycle;Signal;HPM_P1;HPM_P2
2021/12/17 00:01:49;;;;;;;26.63;19.35;;;7.40;99.90;;;;;;5041408;28;20843;-76
2021/12/17 00:04:39;;;;;;;24.37;17.80;;;7.50;99.90;;;;;;5046185;28;20209;-76
2021/12/17 00:07:28;;;;;;;20.75;16.83;;;7.40;99.90;;;;;;5026643;28;20851;-76
2021/12/17 00:10:18;;;;;;;22.58;17.92;;;7.50;99.90;;;;;;5027457;28;20271;-76
2021/12/17 00:13:04;;;;;;;29.77;18.45;;;7.50;99.90;;;;;;5039120;28;20212;-76
2021/12/17 00:15:50;;;;;;;22.40;17.92;;;7.50;99.90;;;;;;5051581;28;20256;-76
2021/12/17 00:18:49;;;;;;;26.80;18.95;;;7.30;99.90;;;;;;5030961;28;20241;-76
2021/12/17 00:49:09;;;;;;;28.80;18.40;;;7.30;99.90;;;;;;5031598;28;20220;-76
2021/12/17 00:51:57;;;;;;;22.63;18.10;;;7.40;99.90;;;;;;5033443;28;20320;-76
2021/12/17 00:54:44;;;;;;;24.65;17.23;;;7.40;99.90;;;;;;5025746;28;20464;-76
2021/12/17 00:57:36;;;;;;;22.15;17.90;;;7.40;99.90;;;;;;5028540;28;20205;-76
2021/12/17 01:00:23;;;;;;;35.03;19.95;;;7.40;99.90;;;;;;5020816;28;20205;-76
2021/12/17 01:03:09;;;;;;;23.55;16.90;;;7.40;99.90;;;;;;5032010;28;20549;-76
2021/12/17 01:05:55;;;;;;;27.58;17.40;;;7.30;99.90;;;;;;5022635;28;20332;-76
2021/12/17 01:08:41;;;;;;;26.20;18.05;;;7.40;99.90;;;;;;5036520;28;20275;-76
2021/12/17 01:11:27;;;;;;;22.60;16.27;;;7.40;99.90;;;;;;5030381;28;20567;-76
2021/12/17 01:14:15;;;;;;;22.70;17.43;;;7.60;99.90;;;;;;5032884;28;20212;-76
2021/12/17 01:17:01;;;;;;;24.85;17.83;;;7.60;99.90;;;;;;5024499;28;20954;-76
2021/12/17 01:23:03;;;;;;;30.08;18.40;;;7.60;99.90;;;;;;5033320;28;20784;-76
2021/12/17 01:35:20;;;;;;;29.45;17.50;;;7.60;99.90;;;;;;5029147;28;20197;-76
2021/12/17 01:35:26;;;;;;;25.38;17.98;;;7.50;99.90;;;;;;5029970;28;20250;-76
2021/12/17 01:44:19;;;;;;;23.08;16.58;;;7.60;99.90;;;;;;5019926;28;20690;-76
2021/12/17 01:47:07;;;;;;;19.92;14.63;;;7.60;99.90;;;;;;5031230;28;20206;-76
2021/12/17 01:56:16;;;;;;;20.92;14.38;;;7.80;99.90;;;;;;5026944;28;20490;-76
2021/12/17 02:02:21;;;;;;;18.25;13.20;;;7.80;99.90;;;;;;5007513;28;20243;-73
2021/12/17 02:05:08;;;;;;;19.95;14.30;;;7.80;99.90;;;;;;4984475;28;20214;-74
2021/12/17 02:07:56;;;;;;;20.42;13.48;;;7.80;99.90;;;;;;5047901;28;20271;-74
2021/12/17 02:20:12;;;;;;;15.53;10.73;;;7.80;99.90;;;;;;5033544;28;20809;-74
2021/12/17 02:23:21;;;;;;;14.13;11.90;;;7.80;99.90;;;;;;5029870;28;20436;-74
2021/12/17 02:29:32;;;;;;;10.03;8.50;;;7.80;99.90;;;;;;5036066;28;20858;-74
2021/12/17 02:32:19;;;;;;;10.05;7.70;;;7.80;99.90;;;;;;5028994;28;20437;-73
2021/12/17 02:35:27;;;;;;;9.80;7.30;;;7.90;99.90;;;;;;5030066;28;20226;-73
2021/12/17 02:38:16;;;;;;;9.05;5.82;;;7.90;99.90;;;;;;5038634;28;20201;-74
2021/12/17 02:47:18;;;;;;;7.28;5.80;;;8.00;99.90;;;;;;5036024;28;20487;-74
2021/12/17 02:50:05;;;;;;;5.20;4.70;;;8.10;99.90;;;;;;5030737;28;20707;-73
2021/12/17 02:52:51;;;;;;;7.17;5.70;;;8.10;99.90;;;;;;5031136;28;20445;-74
2021/12/17 02:55:41;;;;;;;7.10;5.05;;;8.10;99.90;;;;;;5028110;28;20456;-74
2021/12/17 02:58:29;;;;;;;6.07;4.80;;;8.10;99.90;;;;;;5025306;28;20214;-74
2021/12/17 03:01:15;;;;;;;6.15;5.35;;;8.00;99.90;;;;;;5032670;28;20957;-74
2021/12/17 03:04:02;;;;;;;5.82;4.75;;;8.10;99.90;;;;;;5030875;28;20204;-74
2021/12/17 03:06:48;;;;;;;7.03;4.97;;;8.00;99.90;;;;;;5032741;28;20470;-74
2021/12/17 03:09:50;;;;;;;6.68;5.47;;;8.10;99.90;;;;;;5035139;28;20406;-74
2021/12/17 03:12:44;;;;;;;7.70;5.20;;;8.10;99.90;;;;;;5042776;28;20216;-74
2021/12/17 03:15:35;;;;;;;6.97;5.60;;;8.10;99.90;;;;;;5019586;28;20679;-74
2021/12/17 03:24:29;;;;;;;5.93;4.70;;;8.20;99.90;;;;;;5022373;28;20185;-74
2021/12/17 03:27:15;;;;;;;6.50;4.20;;;8.10;99.90;;;;;;5026035;28;20419;-74
2021/12/17 03:30:02;;;;;;;5.75;4.13;;;8.20;99.90;;;;;;5018973;28;20506;-74
2021/12/17 03:32:47;;;;;;;5.40;4.25;;;8.10;99.90;;;;;;5043850;28;20205;-74
2021/12/17 03:35:33;;;;;;;5.30;4.70;;;8.20;99.90;;;;;;5029187;28;20590;-73
2021/12/17 03:38:19;;;;;;;4.93;3.83;;;8.20;99.90;;;;;;5022925;28;20439;-74
2021/12/17 03:41:15;;;;;;;7.00;5.30;;;8.10;99.90;;;;;;5027817;28;20204;-73
2021/12/17 03:44:00;;;;;;;12.57;4.55;;;8.00;99.90;;;;;;5032098;28;20476;-74
2021/12/17 03:46:47;;;;;;;7.65;4.70;;;8.00;99.90;;;;;;5041875;28;20573;-74
2021/12/17 03:49:36;;;;;;;4.93;3.97;;;8.00;99.90;;;;;;5028535;28;20237;-74
2021/12/17 03:52:22;;;;;;;4.97;3.60;;;8.00;99.90;;;;;;5042710;28;20250;-73
2021/12/17 03:55:08;;;;;;;7.70;3.93;;;8.00;99.90;;;;;;5031784;28;20557;-73
2021/12/17 03:57:54;;;;;;;4.20;3.42;;;8.00;99.90;;;;;;5031588;28;20472;-74
2021/12/17 04:00:39;;;;;;;5.80;3.70;;;8.00;99.90;;;;;;5036814;28;20668;-74
2021/12/17 04:03:26;;;;;;;3.70;3.20;;;8.10;99.90;;;;;;5021561;28;20448;-74
2021/12/17 04:06:13;;;;;;;4.15;3.30;;;8.00;99.90;;;;;;5039397;28;20429;-74
2021/12/17 04:08:59;;;;;;;3.93;3.00;;;8.00;99.90;;;;;;5032277;28;20366;-74
2021/12/17 04:11:45;;;;;;;3.80;3.00;;;8.00;99.90;;;;;;5034244;28;20527;-74
2021/12/17 04:14:43;;;;;;;6.00;4.03;;;8.00;99.90;;;;;;5019297;28;20201;-74
2021/12/17 04:17:37;;;;;;;4.87;3.30;;;8.00;99.90;;;;;;5032120;28;20457;-74
2021/12/17 04:20:25;;;;;;;5.23;2.90;;;8.00;99.90;;;;;;5030587;28;20464;-74
2021/12/17 04:23:10;;;;;;;6.75;3.65;;;7.90;99.90;;;;;;5020869;28;20440;-74
2021/12/17 04:25:56;;;;;;;4.10;3.00;;;7.80;99.90;;;;;;5037054;28;20278;-74
2021/12/17 04:28:44;;;;;;;3.60;3.20;;;7.80;99.90;;;;;;5028244;28;20468;-74
2021/12/17 04:31:30;;;;;;;4.37;3.53;;;7.80;99.90;;;;;;5034950;28;20558;-74
2021/12/17 04:34:17;;;;;;;4.10;3.05;;;7.80;99.90;;;;;;5026563;28;20582;-74
2021/12/17 04:37:05;;;;;;;5.93;3.60;;;7.60;99.90;;;;;;5025448;28;20205;-74
2021/12/17 04:39:51;;;;;;;4.47;3.78;;;7.50;99.90;;;;;;5038453;28;20503;-74
2021/12/17 04:42:45;;;;;;;4.78;3.58;;;7.40;99.90;;;;;;5035668;28;20206;-73
2021/12/17 04:45:33;;;;;;;7.20;3.70;;;7.30;99.90;;;;;;5028736;28;20356;-74
2021/12/17 04:57:33;;;;;;;4.93;2.83;;;6.70;99.90;;;;;;5036312;28;20579;-73
2021/12/17 05:00:23;;;;;;;3.83;2.63;;;6.60;99.90;;;;;;5030709;28;20711;-74
2021/12/17 05:03:08;;;;;;;4.93;3.00;;;6.40;99.90;;;;;;5038397;28;20209;-73
2021/12/17 05:05:54;;;;;;;4.60;3.30;;;6.30;99.90;;;;;;5040807;28;20205;-74
2021/12/17 05:08:39;;;;;;;3.40;2.60;;;6.30;99.90;;;;;;5041699;28;20297;-74
2021/12/17 05:11:48;;;;;;;3.20;2.50;;;6.20;99.90;;;;;;5045626;28;20347;-74
2021/12/17 05:20:45;;;;;;;5.65;2.60;;;5.70;99.90;;;;;;5031836;28;20489;-74
2021/12/17 05:23:35;;;;;;;4.60;2.97;;;5.70;99.90;;;;;;5024269;28;20348;-74
2021/12/17 05:26:23;;;;;;;5.05;2.30;;;5.60;99.90;;;;;;5038919;28;20303;-74
2021/12/17 05:29:10;;;;;;;4.43;3.25;;;5.50;99.90;;;;;;5025862;28;20754;-74
2021/12/17 05:31:55;;;;;;;5.88;3.05;;;5.40;99.90;;;;;;5037124;28;20222;-74
2021/12/17 05:34:41;;;;;;;4.28;2.92;;;5.50;99.90;;;;;;5039223;28;20728;-74
2021/12/17 05:37:26;;;;;;;3.17;2.88;;;5.40;99.90;;;;;;5043217;28;20680;-74
2021/12/17 05:40:13;;;;;;;5.28;2.70;;;5.30;99.90;;;;;;5033960;28;20233;-74
2021/12/17 05:43:01;;;;;;;3.58;2.90;;;5.20;99.90;;;;;;5025245;28;20220;-74
2021/12/17 05:46:01;;;;;;;3.83;3.33;;;5.20;99.90;;;;;;5042514;28;20283;-74
2021/12/17 05:48:47;;;;;;;6.88;4.10;;;5.30;99.90;;;;;;5040991;28;20226;-74
2021/12/17 05:51:32;;;;;;;4.20;3.10;;;5.30;99.90;;;;;;5035452;28;20221;-74
2021/12/17 05:54:19;;;;;;;3.10;2.60;;;5.20;99.90;;;;;;5043862;28;20205;-74
2021/12/17 05:57:06;;;;;;;3.30;2.58;;;5.10;99.90;;;;;;5031872;28;20519;-74
2021/12/17 05:59:51;;;;;;;3.60;2.92;;;5.00;99.90;;;;;;5023138;28;20585;-74
2021/12/17 06:02:38;;;;;;;4.10;2.97;;;5.00;99.90;;;;;;5028408;28;20581;-74
2021/12/17 06:05:24;;;;;;;3.70;2.90;;;5.00;99.90;;;;;;5024529;28;20206;-73
2021/12/17 06:08:10;;;;;;;6.18;3.80;;;4.90;99.90;;;;;;5039182;28;20204;-74
2021/12/17 06:10:56;;;;;;;6.72;3.85;;;4.80;99.90;;;;;;5028836;28;20218;-74
2021/12/17 06:13:42;;;;;;;6.68;4.25;;;4.70;99.90;;;;;;5040599;28;20205;-73
2021/12/17 06:16:28;;;;;;;11.35;3.70;;;4.70;99.90;;;;;;5042070;28;20619;-74
2021/12/17 06:19:17;;;;;;;5.50;3.80;;;4.70;99.90;;;;;;5039890;28;20228;-74
2021/12/17 06:22:03;;;;;;;11.70;4.10;;;4.70;99.90;;;;;;5023778;28;20251;-73
2021/12/17 06:24:49;;;;;;;5.35;3.45;;;4.70;99.90;;;;;;5031569;28;20313;-74
2021/12/17 06:27:36;;;;;;;4.80;3.25;;;4.70;99.90;;;;;;5040549;28;20205;-74
2021/12/17 06:30:22;;;;;;;3.70;3.10;;;4.60;99.90;;;;;;5033931;28;20617;-74
2021/12/17 06:33:07;;;;;;;7.95;3.42;;;4.60;99.90;;;;;;5036698;28;20208;-73
2021/12/17 06:35:54;;;;;;;4.68;3.25;;;4.40;99.90;;;;;;5042431;28;20217;-74
2021/12/17 06:38:40;;;;;;;4.03;2.90;;;4.40;99.90;;;;;;5033669;28;20316;-74
2021/12/17 06:41:26;;;;;;;6.53;2.75;;;4.20;99.90;;;;;;5035932;28;20279;-73
2021/12/17 06:44:14;;;;;;;4.20;3.05;;;4.20;99.90;;;;;;5035302;28;20679;-73
2021/12/17 06:47:05;;;;;;;3.50;2.80;;;4.20;99.90;;;;;;5037726;28;20273;-74
2021/12/17 06:49:56;;;;;;;5.70;3.83;;;4.30;99.90;;;;;;5037421;28;20225;-74
2021/12/17 06:56:28;;;;;;;3.80;2.85;;;4.10;99.90;;;;;;5030543;28;20206;-74
2021/12/17 06:59:10;;;;;;;4.22;3.20;;;4.10;99.90;;;;;;5024226;28;20830;-74
2021/12/17 07:11:16;;;;;;;7.63;3.58;;;4.20;99.90;;;;;;5030883;28;20367;-74
2021/12/17 07:17:20;;;;;;;6.65;4.35;;;4.10;99.90;;;;;;5029402;28;20233;-74
2021/12/17 07:23:15;;;;;;;6.65;5.32;;;3.90;99.90;;;;;;5032559;28;20215;-74
2021/12/17 07:35:40;;;;;;;6.03;4.63;;;3.60;99.90;;;;;;5032014;28;20284;-74
2021/12/17 07:38:38;;;;;;;6.55;4.90;;;3.60;99.90;;;;;;5026564;28;20295;-73
2021/12/17 07:41:24;;;;;;;5.50;4.47;;;3.60;99.90;;;;;;5031300;28;20240;-73
2021/12/17 07:44:09;;;;;;;13.20;5.07;;;3.70;99.90;;;;;;5034208;28;20208;-73
2021/12/17 07:46:56;;;;;;;6.13;4.10;;;3.70;99.90;;;;;;5039872;28;20205;-74
2021/12/17 07:49:41;;;;;;;6.45;4.40;;;3.80;99.90;;;;;;5042697;28;20232;-74
2021/12/17 07:52:27;;;;;;;7.53;4.35;;;3.80;99.90;;;;;;5034741;28;20225;-73
2021/12/17 07:55:14;;;;;;;5.70;4.13;;;3.80;99.90;;;;;;5032736;28;20678;-74
2021/12/17 07:58:00;;;;;;;4.88;3.78;;;3.70;99.90;;;;;;5038915;28;20217;-73
2021/12/17 08:00:45;;;;;;;6.22;4.57;;;3.80;99.90;;;;;;5034633;28;20218;-74
2021/12/17 08:03:31;;;;;;;5.90;4.05;;;4.00;99.90;;;;;;5031848;28;20202;-74
2021/12/17 08:06:17;;;;;;;6.55;4.50;;;4.10;99.90;;;;;;5030949;28;20208;-74
2021/12/17 08:09:03;;;;;;;6.57;4.88;;;4.20;99.90;;;;;;5031945;28;20580;-74
2021/12/17 08:11:55;;;;;;;7.78;5.30;;;4.20;99.90;;;;;;5036758;28;20217;-74
2021/12/17 08:14:41;;;;;;;8.15;6.15;;;4.30;99.90;;;;;;5034485;28;20201;-73
2021/12/17 08:17:44;;;;;;;6.03;5.03;;;4.30;99.90;;;;;;5036125;28;20204;-74
2021/12/17 08:24:09;;;;;;;8.30;5.38;;;4.20;99.90;;;;;;5029148;28;20608;-74
2021/12/17 08:27:08;;;;;;;10.85;5.75;;;4.10;99.90;;;;;;5037979;28;20703;-74
2021/12/17 08:30:08;;;;;;;12.20;6.97;;;4.00;99.90;;;;;;5031755;28;20717;-74
2021/12/17 08:32:55;;;;;;;13.63;6.57;;;4.00;99.90;;;;;;5041620;28;20730;-74
2021/12/17 08:35:40;;;;;;;10.05;7.05;;;3.90;99.90;;;;;;5038982;28;20213;-74
2021/12/17 08:38:26;;;;;;;15.02;9.02;;;3.80;99.90;;;;;;5034298;28;20205;-74
2021/12/17 08:41:12;;;;;;;10.07;7.88;;;3.90;99.90;;;;;;5030287;28;20204;-74
2021/12/17 08:43:59;;;;;;;14.30;9.00;;;3.80;99.90;;;;;;5027062;28;20208;-74
2021/12/17 08:46:45;;;;;;;17.95;12.05;;;3.80;99.90;;;;;;5042189;28;20208;-74
2021/12/17 08:49:30;;;;;;;15.30;11.50;;;3.70;99.90;;;;;;5038744;28;20602;-74
2021/12/17 08:52:16;;;;;;;11.13;8.90;;;3.80;99.90;;;;;;5039178;28;20584;-74
2021/12/17 08:55:02;;;;;;;15.63;9.90;;;4.00;99.90;;;;;;5032127;28;20205;-74
2021/12/17 08:57:47;;;;;;;15.48;8.65;;;4.10;99.90;;;;;;5038369;28;20796;-74
2021/12/17 09:00:34;;;;;;;13.07;9.57;;;4.20;99.90;;;;;;5027501;28;20233;-74
2021/12/17 09:03:20;;;;;;;15.85;9.00;;;4.20;99.90;;;;;;5036456;28;20697;-74
2021/12/17 09:06:06;;;;;;;14.95;8.05;;;4.30;99.90;;;;;;5028013;28;20200;-74
2021/12/17 09:08:54;;;;;;;13.23;8.82;;;4.40;99.90;;;;;;5035188;28;20308;-74
2021/12/17 09:11:40;;;;;;;12.63;8.98;;;4.50;99.90;;;;;;5038924;28;20226;-73
2021/12/17 09:14:25;;;;;;;13.00;8.40;;;4.60;99.90;;;;;;5030357;28;20328;-74
2021/12/17 09:17:12;;;;;;;15.45;9.82;;;4.60;99.90;;;;;;5041281;28;20205;-73
2021/12/17 09:19:58;;;;;;;11.50;8.50;;;4.60;99.90;;;;;;5024430;28;20351;-74
2021/12/17 09:22:43;;;;;;;12.38;9.00;;;4.60;99.90;;;;;;5029707;28;20206;-73
2021/12/17 09:25:29;;;;;;;11.68;8.57;;;4.70;99.90;;;;;;5037323;28;20201;-74
2021/12/17 09:28:15;;;;;;;13.57;9.00;;;4.70;99.90;;;;;;5034991;28;20220;-74
2021/12/17 09:31:00;;;;;;;14.57;9.50;;;4.80;99.90;;;;;;5029904;28;20213;-73
2021/12/17 09:33:50;;;;;;;12.95;8.98;;;4.80;99.90;;;;;;5026772;28;20197;-74
2021/12/17 09:36:35;;;;;;;10.88;8.27;;;4.80;99.90;;;;;;5030745;28;20334;-74
2021/12/17 09:39:22;;;;;;;12.95;8.55;;;4.80;99.90;;;;;;5024554;28;20324;-73
2021/12/17 09:42:08;;;;;;;11.70;7.82;;;4.90;99.90;;;;;;5034298;28;20675;-74
2021/12/17 09:44:54;;;;;;;10.75;7.95;;;5.00;99.90;;;;;;5042396;28;20201;-73
2021/12/17 09:47:40;;;;;;;17.20;9.50;;;5.10;99.90;;;;;;5029068;28;20260;-73
2021/12/17 09:50:27;;;;;;;13.27;9.45;;;5.10;99.90;;;;;;5036110;28;20223;-73
2021/12/17 09:53:13;;;;;;;15.55;10.10;;;5.20;99.90;;;;;;5026288;28;20271;-73
2021/12/17 09:55:58;;;;;;;16.58;11.32;;;5.30;99.90;;;;;;5037448;28;20687;-74
2021/12/17 09:58:44;;;;;;;16.45;10.50;;;5.40;99.90;;;;;;5030281;28;20305;-73
2021/12/17 10:01:30;;;;;;;15.82;11.98;;;5.50;99.90;;;;;;5035132;28;20967;-73
2021/12/17 10:04:19;;;;;;;16.50;10.43;;;5.40;99.90;;;;;;5036301;28;20248;-74
2021/12/17 10:07:20;;;;;;;13.20;9.75;;;5.50;99.90;;;;;;5037287;28;20208;-73
2021/12/17 10:10:07;;;;;;;14.10;10.05;;;5.70;99.90;;;;;;5029791;28;20359;-73
2021/12/17 10:13:07;;;;;;;14.00;10.23;;;5.80;99.90;;;;;;5042049;28;20314;-73
2021/12/17 10:15:56;;;;;;;15.27;10.57;;;5.90;99.90;;;;;;5037411;28;20227;-73
2021/12/17 10:18:46;;;;;;;12.27;8.00;;;6.10;99.90;;;;;;5032904;28;20406;-74
2021/12/17 10:21:34;;;;;;;12.27;9.68;;;6.20;99.90;;;;;;5044237;28;20220;-73
2021/12/17 10:24:24;;;;;;;15.77;11.07;;;6.40;99.90;;;;;;5038813;28;20213;-73
2021/12/17 10:27:20;;;;;;;13.32;10.25;;;6.80;99.90;;;;;;5040228;28;20320;-73
2021/12/17 10:30:13;;;;;;;14.93;9.05;;;7.50;99.90;;;;;;5031516;28;20748;-73
2021/12/17 10:33:00;;;;;;;13.37;9.90;;;8.10;99.90;;;;;;5012137;28;20217;-73
2021/12/17 10:35:48;;;;;;;14.32;11.25;;;8.60;99.90;;;;;;5036364;28;20435;-74
2021/12/17 10:38:35;;;;;;;15.27;10.70;;;9.10;99.90;;;;;;5024565;28;20225;-72
2021/12/17 10:41:26;;;;;;;16.43;10.47;;;9.60;99.90;;;;;;5029695;28;20534;-73
2021/12/17 10:44:12;;;;;;;11.30;8.63;;;10.10;99.90;;;;;;5034665;28;20432;-74
2021/12/17 10:47:13;;;;;;;9.47;7.90;;;10.40;99.90;;;;;;5045183;28;20412;-74
2021/12/17 10:50:02;;;;;;;10.20;7.70;;;10.80;99.90;;;;;;5021916;28;20444;-74
2021/12/17 10:52:55;;;;;;;10.57;7.30;;;10.90;99.90;;;;;;5026756;28;20479;-74
2021/12/17 10:55:45;;;;;;;11.07;7.50;;;11.00;99.90;;;;;;5032964;28;20782;-73
2021/12/17 10:58:32;;;;;;;10.53;6.17;;;10.90;99.90;;;;;;5025109;28;20860;-73
2021/12/17 11:01:18;;;;;;;9.83;7.57;;;11.10;99.90;;;;;;5025906;28;20533;-74
2021/12/17 11:04:06;;;;;;;8.40;6.43;;;11.10;99.90;;;;;;5049326;28;20421;-73
2021/12/17 11:06:54;;;;;;;10.60;6.27;;;10.80;99.90;;;;;;5030960;28;20835;-74
2021/12/17 11:09:42;;;;;;;7.83;6.30;;;10.50;99.90;;;;;;5021447;28;21064;-74
2021/12/17 11:12:33;;;;;;;9.27;6.80;;;10.20;99.90;;;;;;5037313;28;20472;-73
2021/12/17 11:15:24;;;;;;;9.53;7.17;;;10.10;99.90;;;;;;5036486;28;20512;-73
2021/12/17 11:18:09;;;;;;;7.93;6.20;;;10.00;99.90;;;;;;5020750;28;21001;-74
2021/12/17 11:20:56;;;;;;;10.03;6.70;;;9.90;99.90;;;;;;5038397;28;20461;-73
2021/12/17 11:23:43;;;;;;;7.87;6.40;;;9.80;99.90;;;;;;5043556;28;21006;-74
2021/12/17 11:26:29;;;;;;;11.23;7.60;;;9.60;99.90;;;;;;5035490;28;20415;-73
2021/12/17 11:29:17;;;;;;;8.43;7.10;;;9.50;99.90;;;;;;5029022;28;20488;-73
2021/12/17 11:32:06;;;;;;;9.13;6.07;;;9.40;99.90;;;;;;5034806;28;20549;-74
2021/12/17 11:34:53;;;;;;;9.07;6.20;;;9.30;99.90;;;;;;5036703;28;20446;-74
2021/12/17 11:37:42;;;;;;;6.40;5.67;;;9.30;99.90;;;;;;5022051;28;20277;-74
2021/12/17 11:40:31;;;;;;;6.43;5.43;;;9.10;99.90;;;;;;5026420;28;20452;-74
2021/12/17 11:43:48;;;;;;;8.10;5.63;;;9.10;99.90;;;;;;5034352;28;20213;-74
2021/12/17 11:46:34;;;;;;;10.13;6.60;;;9.00;99.90;;;;;;5031206;28;20440;-74
2021/12/17 11:49:24;;;;;;;9.20;6.95;;;9.00;99.90;;;;;;5024445;28;20971;-74
2021/12/17 11:52:09;;;;;;;9.90;6.47;;;8.90;99.90;;;;;;5029324;28;20291;-74
2021/12/17 11:54:55;;;;;;;13.90;7.67;;;8.80;99.90;;;;;;5022838;28;20452;-74
2021/12/17 11:57:42;;;;;;;9.83;7.40;;;8.70;99.90;;;;;;5037798;28;21087;-73
2021/12/17 12:00:31;;;;;;;9.52;7.28;;;8.60;99.90;;;;;;5016555;28;20629;-74
2021/12/17 12:03:20;;;;;;;7.97;6.43;;;8.60;99.90;;;;;;5032727;28;20214;-74
2021/12/17 12:06:07;;;;;;;10.75;7.85;;;8.60;99.90;;;;;;5026378;28;22300;-73
2021/12/17 12:09:02;;;;;;;9.38;7.10;;;8.70;99.90;;;;;;5040591;28;20237;-74
2021/12/17 12:12:09;;;;;;;11.43;8.35;;;8.80;99.90;;;;;;5037294;28;20204;-74
2021/12/17 12:14:55;;;;;;;13.43;11.33;;;8.90;99.90;;;;;;5032472;28;20710;-74
2021/12/17 12:18:06;;;;;;;12.67;9.30;;;8.90;99.90;;;;;;5014946;28;20488;-74
2021/12/17 12:21:00;;;;;;;13.10;8.98;;;8.90;99.90;;;;;;5012160;28;20413;-73
2021/12/17 12:23:53;;;;;;;10.90;8.20;;;8.90;99.90;;;;;;5020972;28;20318;-74
2021/12/17 12:26:41;;;;;;;10.37;8.30;;;9.10;99.90;;;;;;5030507;28;20455;-73
2021/12/17 12:29:29;;;;;;;11.50;8.80;;;9.50;99.90;;;;;;5038101;28;21016;-74
2021/12/17 12:32:20;;;;;;;10.63;8.43;;;10.10;99.90;;;;;;5031648;28;20464;-73
2021/12/17 12:35:08;;;;;;;12.10;8.27;;;10.90;99.90;;;;;;5030679;28;20420;-73
2021/12/17 12:38:16;;;;;;;9.17;7.13;;;11.80;99.90;;;;;;5032392;28;20519;-73
2021/12/17 12:41:07;;;;;;;11.20;7.77;;;12.40;99.90;;;;;;5037236;28;20454;-73
2021/12/17 12:43:53;;;;;;;10.37;7.50;;;12.70;99.90;;;;;;5039060;28;20451;-74
2021/12/17 12:46:56;;;;;;;9.83;7.03;;;13.10;99.90;;;;;;5041623;28;20447;-74
2021/12/17 12:49:44;;;;;;;14.33;7.57;;;13.80;94.20;;;;;;5036774;28;20456;-73
2021/12/17 12:52:37;;;;;;;10.73;6.73;;;14.30;89.00;;;;;;5031277;28;20471;-74
2021/12/17 12:55:30;;;;;;;9.37;7.60;;;15.10;78.90;;;;;;5032011;28;20791;-74
2021/12/17 12:58:19;;;;;;;9.23;7.33;;;16.40;65.80;;;;;;5041739;28;20427;-74
2021/12/17 13:01:07;;;;;;;10.23;7.20;;;17.50;56.50;;;;;;5025847;28;20800;-74
2021/12/17 13:03:52;;;;;;;10.63;8.20;;;18.40;50.00;;;;;;5041469;28;20396;-74
2021/12/17 13:06:38;;;;;;;10.00;6.80;;;18.40;47.40;;;;;;5024536;28;20423;-72
2021/12/17 13:09:29;;;;;;;11.13;8.23;;;17.30;48.80;;;;;;5024311;28;20504;-74
2021/12/17 13:12:16;;;;;;;12.20;7.93;;;15.70;55.00;;;;;;5015376;28;20400;-74
2021/12/17 13:15:16;;;;;;;13.77;9.43;;;14.30;62.60;;;;;;5017353;28;20460;-73
2021/12/17 13:21:33;;;;;;;11.60;8.70;;;11.90;88.20;;;;;;5027883;28;20990;-73
2021/12/17 13:24:21;;;;;;;17.77;9.80;;;11.00;97.50;;;;;;5029649;28;20935;-74
2021/12/17 13:27:10;;;;;;;16.10;10.60;;;10.40;99.90;;;;;;5025339;28;20448;-74
2021/12/17 13:29:59;;;;;;;11.80;10.17;;;10.10;99.90;;;;;;5021987;28;20437;-74
2021/12/17 13:32:46;;;;;;;13.20;9.70;;;9.80;99.90;;;;;;5023891;28;20455;-73
2021/12/17 13:35:36;;;;;;;14.37;10.20;;;9.50;99.90;;;;;;5026009;28;20455;-74
2021/12/17 13:38:21;;;;;;;17.38;10.10;;;9.40;99.90;;;;;;5025222;28;20456;-73
2021/12/17 13:41:10;;;;;;;12.07;9.40;;;9.20;99.90;;;;;;5027793;28;20263;-73
2021/12/17 13:43:56;;;;;;;12.00;9.80;;;9.10;99.90;;;;;;5027425;28;20488;-73
2021/12/17 13:46:42;;;;;;;14.30;10.03;;;9.00;99.90;;;;;;5020930;28;20988;-73
2021/12/17 13:49:29;;;;;;;14.33;9.83;;;8.90;99.90;;;;;;5037162;28;21100;-73
2021/12/17 13:52:15;;;;;;;16.10;11.37;;;8.80;99.90;;;;;;5026559;28;20487;-73
2021/12/17 13:55:03;;;;;;;22.80;11.90;;;8.70;99.90;;;;;;5025117;28;20422;-73
2021/12/17 13:57:49;;;;;;;18.63;13.80;;;8.60;99.90;;;;;;5026277;28;20421;-74
2021/12/17 14:00:39;;;;;;;19.00;11.90;;;8.50;99.90;;;;;;5030095;28;20526;-74
2021/12/17 14:03:30;;;;;;;16.30;10.95;;;8.50;99.90;;;;;;5031594;28;20452;-74
2021/12/17 14:06:21;;;;;;;16.80;11.80;;;8.50;99.90;;;;;;5029077;28;20300;-73
2021/12/17 14:09:07;;;;;;;28.60;13.05;;;8.40;99.90;;;;;;5020571;28;20461;-73
2021/12/17 14:11:53;;;;;;;18.67;12.45;;;8.30;99.90;;;;;;5026160;28;20351;-73
2021/12/17 14:14:39;;;;;;;13.90;11.43;;;8.20;99.90;;;;;;5027822;28;20225;-73
2021/12/17 14:17:25;;;;;;;15.20;11.30;;;8.20;99.90;;;;;;5031646;28;20268;-73
2021/12/17 14:20:13;;;;;;;14.70;11.23;;;8.20;99.90;;;;;;5026061;28;20959;-74
2021/12/17 14:23:08;;;;;;;17.75;12.25;;;8.10;99.90;;;;;;5019195;28;20444;-74
2021/12/17 14:25:55;;;;;;;15.23;10.80;;;8.10;99.90;;;;;;5025915;28;20206;-73
2021/12/17 14:28:41;;;;;;;18.08;11.45;;;8.10;99.90;;;;;;5037068;28;20224;-74
2021/12/17 14:31:26;;;;;;;16.60;11.20;;;8.20;99.90;;;;;;5048466;28;20243;-73
2021/12/17 14:34:17;;;;;;;19.10;12.98;;;8.20;99.90;;;;;;5025816;28;21005;-74
2021/12/17 14:37:03;;;;;;;18.55;11.50;;;8.20;99.90;;;;;;5027556;28;20237;-74
2021/12/17 14:39:53;;;;;;;18.35;11.68;;;8.20;99.90;;;;;;5027202;28;20253;-74
2021/12/17 14:42:45;;;;;;;14.33;10.50;;;8.20;99.90;;;;;;5038105;28;20197;-74
2021/12/17 14:45:39;;;;;;;14.13;10.73;;;8.10;99.90;;;;;;5031897;28;20444;-74
2021/12/17 14:48:34;;;;;;;13.60;10.45;;;8.00;99.90;;;;;;5016712;28;20199;-74
2021/12/17 15:00:46;;;;;;;19.38;11.18;;;8.00;99.90;;;;;;5007457;28;20233;-74
2021/12/17 15:03:41;;;;;;;16.70;12.20;;;8.00;99.90;;;;;;5026065;28;20205;-74
2021/12/17 15:06:26;;;;;;;14.98;10.05;;;8.10;99.90;;;;;;5028286;28;20209;-74
2021/12/17 15:09:12;;;;;;;14.15;10.73;;;8.00;99.90;;;;;;5015454;28;20705;-74
2021/12/17 15:12:00;;;;;;;17.52;10.75;;;8.00;99.90;;;;;;5025542;28;20212;-74
2021/12/17 15:14:46;;;;;;;14.50;11.47;;;7.90;99.90;;;;;;5022955;28;20322;-73
2021/12/17 15:17:33;;;;;;;14.00;10.73;;;7.90;99.90;;;;;;5035602;28;20857;-74
2021/12/17 15:20:20;;;;;;;16.15;11.25;;;7.90;99.90;;;;;;5032430;28;20365;-72
2021/12/17 15:23:06;;;;;;;14.48;11.60;;;7.90;99.90;;;;;;5026822;28;20684;-72
2021/12/17 15:25:54;;;;;;;18.25;10.93;;;7.80;99.90;;;;;;5030000;28;20332;-73
2021/12/17 15:28:39;;;;;;;20.13;12.45;;;7.80;99.90;;;;;;5035413;28;20225;-73
2021/12/17 15:31:26;;;;;;;13.57;9.55;;;7.70;99.90;;;;;;5026734;28;20247;-73
2021/12/17 15:34:12;;;;;;;14.77;9.85;;;7.80;99.90;;;;;;5026418;28;20580;-74
2021/12/17 15:36:58;;;;;;;13.45;8.95;;;7.70;99.90;;;;;;5043017;28;20217;-74
2021/12/17 15:39:44;;;;;;;12.05;8.95;;;7.70;99.90;;;;;;5031234;28;20232;-74
2021/12/17 15:42:29;;;;;;;15.88;9.07;;;7.70;99.90;;;;;;5032283;28;20202;-74
2021/12/17 15:45:16;;;;;;;11.63;8.77;;;7.60;99.90;;;;;;5031831;28;20202;-74
2021/12/17 15:48:03;;;;;;;11.75;8.60;;;7.70;99.90;;;;;;5029037;28;20209;-74
2021/12/17 15:50:49;;;;;;;10.90;8.43;;;7.70;99.90;;;;;;5032397;28;20248;-74
2021/12/17 15:53:35;;;;;;;11.35;7.80;;;7.80;99.90;;;;;;5029372;28;20307;-74
2021/12/17 15:56:20;;;;;;;12.07;8.43;;;7.70;99.90;;;;;;5037310;28;20203;-74
2021/12/17 15:59:06;;;;;;;12.40;8.25;;;7.70;99.90;;;;;;5033511;28;20236;-74
2021/12/17 16:01:52;;;;;;;11.50;8.55;;;7.60;99.90;;;;;;5031841;28;20260;-74
2021/12/17 16:04:40;;;;;;;12.82;8.05;;;7.70;99.90;;;;;;5029657;28;20225;-74
2021/12/17 16:07:25;;;;;;;12.30;8.55;;;7.70;99.90;;;;;;5032012;28;20205;-74
2021/12/17 16:22:32;;;;;;;13.00;7.25;;;7.90;99.90;;;;;;5029405;28;20221;-74
2021/12/17 16:25:18;;;;;;;9.57;6.83;;;7.90;99.90;;;;;;5030675;28;20200;-74
2021/12/17 16:28:04;;;;;;;10.20;7.35;;;7.90;99.90;;;;;;5046611;28;20432;-74
2021/12/17 16:30:50;;;;;;;13.45;8.30;;;7.90;99.90;;;;;;5050594;28;20247;-74
2021/12/17 16:33:36;;;;;;;13.90;8.60;;;7.80;99.90;;;;;;5012909;28;20715;-74
2021/12/17 16:36:22;;;;;;;13.00;7.80;;;7.80;99.90;;;;;;5012034;28;20542;-74
2021/12/17 16:39:18;;;;;;;11.40;7.93;;;7.90;99.90;;;;;;5012564;28;20649;-74
2021/12/17 16:42:05;;;;;;;11.43;7.70;;;7.90;99.90;;;;;;5009673;28;20456;-75
2021/12/17 16:45:14;;;;;;;12.37;7.87;;;7.90;99.90;;;;;;5042773;28;20202;-74
2021/12/17 16:48:04;;;;;;;11.13;6.43;;;7.90;99.90;;;;;;5024810;28;20527;-74
2021/12/17 16:50:52;;;;;;;8.57;6.27;;;7.90;99.90;;;;;;5035092;28;20269;-73
2021/12/17 16:53:38;;;;;;;9.15;6.90;;;7.90;99.90;;;;;;5030138;28;20844;-74
2021/12/17 16:56:26;;;;;;;6.38;5.13;;;7.90;99.90;;;;;;5029196;28;20213;-73
2021/12/17 16:59:11;;;;;;;10.48;6.18;;;7.90;99.90;;;;;;5028695;28;20235;-74
2021/12/17 17:01:57;;;;;;;9.88;6.18;;;7.90;99.90;;;;;;5023802;28;20221;-75
2021/12/17 17:04:43;;;;;;;10.60;5.90;;;7.80;99.90;;;;;;5039459;28;20205;-74
2021/12/17 17:07:29;;;;;;;9.45;6.30;;;7.80;99.90;;;;;;5031449;28;20214;-74
2021/12/17 17:10:15;;;;;;;11.77;6.25;;;7.80;99.90;;;;;;5027093;28;20233;-74